Time;durP1;ratioP1;P1;durP2;ratioP2;P2;SDS_P1;SDS_P2;PMS_P1;PMS_P2;Temp;Humidity;BMP_temperature;BMP_pressure;BME280_temperature;BME280_humidity;BME280_pressure;Samples;Min_cycle;Max_cycle;Signal;HPM_P1;HPM_P2
2023/06/06 00:01:36;;;;;;;3.20;2.80;;;15.10;99.90;;;;;;5049001;28;20471;-68
2023/06/06 00:04:03;;;;;;;2.60;2.40;;;15.10;99.90;;;;;;5049716;28;20474;-68
2023/06/06 00:06:32;;;;;;;3.33;2.80;;;15.00;99.90;;;;;;5049221;28;20952;-68
2023/06/06 00:08:59;;;;;;;2.40;2.20;;;15.00;99.90;;;;;;5048964;28;20483;-68
2023/06/06 00:11:28;;;;;;;2.47;2.27;;;14.90;99.90;;;;;;5048795;28;20507;-68
2023/06/06 00:13:56;;;;;;;3.10;2.60;;;14.90;99.90;;;;;;5049516;28;20568;-68
2023/06/06 00:16:23;;;;;;;4.23;3.43;;;14.80;99.90;;;;;;5049501;28;20486;-68
2023/06/06 00:18:52;;;;;;;2.40;2.13;;;14.80;99.90;;;;;;5049026;28;20480;-68
2023/06/06 00:21:21;;;;;;;2.30;2.10;;;14.70;99.90;;;;;;5048718;28;20466;-68
2023/06/06 00:23:48;;;;;;;2.47;2.20;;;14.70;99.90;;;;;;5049223;28;20463;-68
2023/06/06 00:26:15;;;;;;;3.27;2.60;;;14.70;99.90;;;;;;5049432;28;20470;-68
2023/06/06 00:28:41;;;;;;;2.27;2.07;;;14.70;99.90;;;;;;5048653;28;20484;-68
2023/06/06 00:31:09;;;;;;;2.53;2.20;;;14.70;99.90;;;;;;5047908;28;20472;-68
2023/06/06 00:33:36;;;;;;;3.37;2.43;;;14.60;99.90;;;;;;5048281;28;20467;-68
2023/06/06 00:36:03;;;;;;;2.93;2.70;;;14.50;99.90;;;;;;5048803;28;20517;-68
2023/06/06 00:38:30;;;;;;;2.53;2.17;;;14.40;99.90;;;;;;5038486;28;20570;-68
2023/06/06 00:40:57;;;;;;;2.47;2.27;;;14.40;99.90;;;;;;5028442;28;20501;-68
2023/06/06 00:43:24;;;;;;;2.47;2.27;;;14.40;99.90;;;;;;5028803;28;20460;-68
2023/06/06 00:45:51;;;;;;;2.37;2.17;;;14.40;99.90;;;;;;5027633;28;20469;-68
2023/06/06 00:48:20;;;;;;;2.10;1.83;;;14.40;99.90;;;;;;5028379;28;20476;-68
2023/06/06 00:50:48;;;;;;;2.33;2.13;;;14.30;99.90;;;;;;5032125;28;20471;-68
2023/06/06 00:53:15;;;;;;;2.43;2.23;;;14.30;99.90;;;;;;5048740;28;20551;-68
2023/06/06 00:55:42;;;;;;;2.70;2.37;;;14.30;99.90;;;;;;5048459;28;20872;-68
2023/06/06 00:58:11;;;;;;;3.10;2.47;;;14.30;99.90;;;;;;5048681;28;21281;-68
2023/06/06 01:00:39;;;;;;;2.20;2.00;;;14.20;99.90;;;;;;5047181;28;20459;-68
2023/06/06 01:03:09;;;;;;;2.37;2.00;;;14.20;99.90;;;;;;5048281;28;20467;-68
2023/06/06 01:05:38;;;;;;;2.50;2.30;;;14.10;99.90;;;;;;5047663;28;20478;-68
2023/06/06 01:08:05;;;;;;;2.10;1.90;;;14.10;99.90;;;;;;5048201;28;20856;-68
2023/06/06 01:10:34;;;;;;;2.40;2.20;;;14.00;99.90;;;;;;5047666;28;20455;-68
2023/06/06 01:13:11;;;;;;;2.50;2.27;;;14.00;99.90;;;;;;5048552;28;20943;-68
2023/06/06 01:15:44;;;;;;;2.60;2.40;;;14.00;99.90;;;;;;5046577;28;20459;-68
2023/06/06 01:18:12;;;;;;;3.07;2.63;;;14.00;99.90;;;;;;5028967;28;20483;-68
2023/06/06 01:20:41;;;;;;;2.13;1.90;;;13.90;99.90;;;;;;5028108;28;20516;-68
2023/06/06 01:23:11;;;;;;;2.40;2.20;;;13.90;99.90;;;;;;5028912;28;20498;-68
2023/06/06 01:25:40;;;;;;;2.93;2.37;;;13.90;99.90;;;;;;5030502;28;20464;-69
2023/06/06 01:28:13;;;;;;;2.37;2.17;;;13.80;99.90;;;;;;5043245;28;20476;-68
2023/06/06 01:30:41;;;;;;;3.23;2.10;;;13.80;99.90;;;;;;5043658;28;20459;-68
2023/06/06 01:33:19;;;;;;;2.13;1.93;;;13.80;99.90;;;;;;5050056;28;20481;-69
2023/06/06 01:35:57;;;;;;;2.73;2.33;;;13.70;99.90;;;;;;5050056;28;20459;-68
2023/06/06 01:38:29;;;;;;;2.60;2.27;;;13.60;99.90;;;;;;5049881;28;20483;-68
2023/06/06 01:40:58;;;;;;;2.77;2.23;;;13.60;99.90;;;;;;5049496;28;20471;-68
2023/06/06 01:43:27;;;;;;;2.47;2.27;;;13.60;99.90;;;;;;5050032;28;20472;-68
2023/06/06 01:45:55;;;;;;;2.30;1.60;;;13.60;99.90;;;;;;5049944;28;20460;-68
2023/06/06 01:48:23;;;;;;;3.07;2.77;;;13.60;99.90;;;;;;5049973;28;20475;-68
2023/06/06 01:50:51;;;;;;;2.20;2.00;;;13.50;99.90;;;;;;5049155;28;20463;-68
2023/06/06 01:53:18;;;;;;;1.70;1.60;;;13.50;99.90;;;;;;5050009;28;20543;-68
2023/06/06 01:55:48;;;;;;;2.57;2.07;;;13.50;99.90;;;;;;5047686;28;20956;-68
2023/06/06 01:58:16;;;;;;;2.60;2.13;;;13.40;99.90;;;;;;5034034;28;20487;-67
2023/06/06 02:00:43;;;;;;;2.33;2.13;;;13.40;99.90;;;;;;5033418;28;20467;-68
2023/06/06 02:03:11;;;;;;;2.50;1.87;;;13.40;99.90;;;;;;5034319;28;20464;-68
2023/06/06 02:05:38;;;;;;;2.40;2.20;;;13.30;99.90;;;;;;5033852;28;20452;-68
2023/06/06 02:08:05;;;;;;;3.40;2.07;;;13.30;99.90;;;;;;5033852;28;20578;-67
2023/06/06 02:10:32;;;;;;;2.97;2.47;;;13.20;99.90;;;;;;5033296;28;20483;-68
2023/06/06 02:13:00;;;;;;;3.47;2.20;;;13.20;99.90;;;;;;5034043;28;20517;-68
2023/06/06 02:15:29;;;;;;;3.37;3.07;;;13.10;99.90;;;;;;5033909;28;20464;-68
2023/06/06 02:17:56;;;;;;;2.43;2.23;;;13.10;99.90;;;;;;5033801;28;20510;-68
2023/06/06 02:20:22;;;;;;;2.33;1.97;;;13.10;99.90;;;;;;5033627;28;20522;-67
2023/06/06 02:22:49;;;;;;;2.33;2.00;;;13.10;99.90;;;;;;5033408;28;20464;-68
2023/06/06 02:25:16;;;;;;;2.40;2.20;;;13.00;99.90;;;;;;5033755;28;20456;-68
2023/06/06 02:27:48;;;;;;;2.20;2.00;;;13.00;99.90;;;;;;5033347;28;20482;-68
2023/06/06 02:30:16;;;;;;;2.70;2.43;;;13.00;99.90;;;;;;5033087;28;21022;-67
2023/06/06 02:32:43;;;;;;;3.20;2.70;;;12.90;99.90;;;;;;5033460;28;20468;-67
2023/06/06 02:35:10;;;;;;;2.73;2.50;;;12.90;99.90;;;;;;5033527;28;20460;-68
2023/06/06 02:37:37;;;;;;;2.17;1.97;;;12.90;99.90;;;;;;5033154;28;20488;-68
2023/06/06 02:40:08;;;;;;;2.40;2.10;;;12.90;99.90;;;;;;5033191;28;20464;-67
2023/06/06 02:42:36;;;;;;;2.67;2.30;;;12.90;99.90;;;;;;5032891;28;20962;-68
2023/06/06 02:45:03;;;;;;;2.40;2.20;;;12.90;99.90;;;;;;5033230;28;20967;-68
2023/06/06 02:47:31;;;;;;;2.73;2.40;;;12.80;99.90;;;;;;5032971;28;20479;-68
2023/06/06 02:49:58;;;;;;;2.30;2.10;;;12.90;99.90;;;;;;5032943;28;20465;-67
2023/06/06 02:52:25;;;;;;;2.03;1.83;;;12.80;99.90;;;;;;5033079;28;20472;-68
2023/06/06 02:54:52;;;;;;;2.30;2.10;;;12.80;99.90;;;;;;5024712;28;20514;-68
2023/06/06 02:57:19;;;;;;;3.30;3.00;;;12.80;99.90;;;;;;5032936;28;20488;-68
2023/06/06 02:59:46;;;;;;;2.30;2.07;;;12.70;99.90;;;;;;5032695;28;20558;-68
2023/06/06 03:02:13;;;;;;;2.80;2.60;;;12.70;99.90;;;;;;5033027;28;20498;-68
2023/06/06 03:04:41;;;;;;;2.63;2.43;;;12.70;99.90;;;;;;5032896;28;20464;-69
2023/06/06 03:07:10;;;;;;;2.67;2.30;;;12.60;99.90;;;;;;5032331;28;20464;-68
2023/06/06 03:09:37;;;;;;;3.20;2.50;;;12.60;99.90;;;;;;5032403;28;20464;-69
2023/06/06 03:12:04;;;;;;;3.57;2.73;;;12.50;99.90;;;;;;5032619;28;20460;-68
2023/06/06 03:14:32;;;;;;;2.63;2.13;;;12.50;99.90;;;;;;5032411;28;20528;-68
2023/06/06 03:16:59;;;;;;;2.83;2.47;;;12.50;99.90;;;;;;5032790;28;20487;-68
2023/06/06 03:19:26;;;;;;;2.73;1.97;;;12.50;99.90;;;;;;5032337;28;21003;-68
2023/06/06 03:21:54;;;;;;;2.97;2.33;;;12.50;99.90;;;;;;5031975;28;20532;-68
2023/06/06 03:24:21;;;;;;;2.70;2.50;;;12.50;99.90;;;;;;5032748;28;20461;-68
2023/06/06 03:26:48;;;;;;;2.40;2.20;;;12.50;99.90;;;;;;5050938;28;20470;-68
2023/06/06 03:29:15;;;;;;;2.67;2.27;;;12.40;99.90;;;;;;5051993;28;20484;-67
2023/06/06 03:31:44;;;;;;;2.73;2.40;;;12.40;99.90;;;;;;5031292;28;20456;-68
2023/06/06 03:34:10;;;;;;;3.00;2.70;;;12.40;99.90;;;;;;5026463;28;20493;-68
2023/06/06 03:36:37;;;;;;;3.13;2.40;;;12.40;99.90;;;;;;5027047;28;20456;-68
2023/06/06 03:39:06;;;;;;;2.60;2.40;;;12.30;99.90;;;;;;5024278;28;20480;-67
2023/06/06 03:41:33;;;;;;;2.83;2.47;;;12.30;99.90;;;;;;5024885;28;20957;-66
2023/06/06 03:44:01;;;;;;;3.43;2.47;;;12.40;99.90;;;;;;5027761;28;20471;-67
2023/06/06 03:46:28;;;;;;;3.43;2.43;;;12.40;99.90;;;;;;5024855;28;20504;-67
2023/06/06 03:48:56;;;;;;;3.53;3.23;;;12.40;99.90;;;;;;5018523;28;20563;-67
2023/06/06 03:51:22;;;;;;;3.13;2.87;;;12.30;99.90;;;;;;5018551;28;20465;-67
2023/06/06 03:53:49;;;;;;;2.50;2.30;;;12.30;99.90;;;;;;5018033;28;20828;-67
2023/06/06 03:56:17;;;;;;;2.33;1.90;;;12.40;99.90;;;;;;5016814;28;20465;-67
2023/06/06 03:58:46;;;;;;;2.63;2.43;;;12.30;99.90;;;;;;5018191;28;20489;-68
2023/06/06 04:01:14;;;;;;;2.77;2.53;;;12.30;99.90;;;;;;5016453;28;20515;-67
2023/06/06 04:03:42;;;;;;;3.30;2.80;;;12.40;99.90;;;;;;5031667;28;20959;-67
2023/06/06 04:06:09;;;;;;;2.97;2.60;;;12.40;99.90;;;;;;5020079;28;20470;-68
2023/06/06 04:08:36;;;;;;;2.63;2.23;;;12.40;99.90;;;;;;5019787;28;20473;-68
2023/06/06 04:11:03;;;;;;;3.10;2.40;;;12.40;99.90;;;;;;5017538;28;20527;-67
2023/06/06 04:13:31;;;;;;;2.93;2.60;;;12.40;99.90;;;;;;5016574;28;20461;-68
2023/06/06 04:15:58;;;;;;;2.80;2.50;;;12.40;99.90;;;;;;5023848;28;20849;-67
2023/06/06 04:18:25;;;;;;;2.63;2.43;;;12.40;99.90;;;;;;5016155;28;20694;-67
2023/06/06 04:20:52;;;;;;;2.90;2.60;;;12.50;99.90;;;;;;5016645;28;20556;-67
2023/06/06 04:23:19;;;;;;;2.83;2.63;;;12.50;99.90;;;;;;5018657;28;20465;-68
2023/06/06 04:25:46;;;;;;;2.93;2.63;;;12.50;99.90;;;;;;5020840;28;20464;-68
2023/06/06 04:28:17;;;;;;;2.50;2.30;;;12.60;99.90;;;;;;5018169;28;20615;-68
2023/06/06 04:30:46;;;;;;;2.73;2.30;;;12.60;99.90;;;;;;5029570;28;20463;-68
2023/06/06 04:33:13;;;;;;;3.03;2.60;;;12.60;99.90;;;;;;5033721;28;20977;-68
2023/06/06 04:35:42;;;;;;;2.70;2.50;;;12.70;99.90;;;;;;5047249;28;20548;-68
2023/06/06 04:38:10;;;;;;;3.13;2.53;;;12.70;99.90;;;;;;5030882;28;20490;-68
2023/06/06 04:40:40;;;;;;;2.53;2.33;;;12.80;99.90;;;;;;5030239;28;20488;-68
2023/06/06 04:43:07;;;;;;;2.93;2.50;;;12.90;99.90;;;;;;5031153;28;20545;-68
2023/06/06 04:45:34;;;;;;;3.03;2.73;;;12.90;99.90;;;;;;5030807;28;20485;-68
2023/06/06 04:48:03;;;;;;;2.43;2.23;;;13.00;99.90;;;;;;5039099;28;20904;-68
2023/06/06 04:50:30;;;;;;;3.00;2.50;;;13.00;99.90;;;;;;5030419;28;20833;-68
2023/06/06 04:52:57;;;;;;;3.73;3.00;;;13.10;99.90;;;;;;5042040;28;20467;-68
2023/06/06 04:55:27;;;;;;;3.20;2.90;;;13.20;99.90;;;;;;5043904;28;20464;-68
2023/06/06 04:57:55;;;;;;;2.93;2.70;;;13.20;99.90;;;;;;5030594;28;21262;-68
2023/06/06 05:00:22;;;;;;;3.13;2.60;;;13.30;99.90;;;;;;5038675;28;20486;-68
2023/06/06 05:02:50;;;;;;;3.43;3.13;;;13.50;99.90;;;;;;5030535;28;20551;-68
2023/06/06 05:05:18;;;;;;;3.33;2.97;;;13.60;99.90;;;;;;5031003;28;20468;-68
2023/06/06 05:07:45;;;;;;;3.73;2.97;;;13.70;99.90;;;;;;5030400;28;20480;-68
2023/06/06 05:10:12;;;;;;;3.20;2.87;;;13.80;99.90;;;;;;5030494;28;20828;-68
2023/06/06 05:12:39;;;;;;;2.90;2.60;;;13.90;99.90;;;;;;5030704;28;20464;-68
2023/06/06 05:15:07;;;;;;;3.57;3.10;;;13.90;99.90;;;;;;5030919;28;20836;-68
2023/06/06 05:17:33;;;;;;;4.67;3.00;;;14.00;99.90;;;;;;5030727;28;20502;-68
2023/06/06 05:20:00;;;;;;;3.30;3.07;;;14.10;99.90;;;;;;5030103;28;20857;-68
2023/06/06 05:22:29;;;;;;;3.07;2.87;;;14.30;99.90;;;;;;5030307;28;20466;-68
2023/06/06 05:24:55;;;;;;;3.03;2.73;;;14.40;99.90;;;;;;5041239;28;20474;-67
2023/06/06 05:27:22;;;;;;;3.97;3.53;;;14.40;99.90;;;;;;5050165;28;20475;-68
2023/06/06 05:29:49;;;;;;;4.00;2.93;;;14.50;99.90;;;;;;5049709;28;20546;-68
2023/06/06 05:32:16;;;;;;;3.43;3.13;;;14.60;99.90;;;;;;5049996;28;20460;-67
2023/06/06 05:34:43;;;;;;;4.30;3.27;;;14.60;99.90;;;;;;5049902;28;20509;-67
2023/06/06 05:37:10;;;;;;;3.20;2.90;;;14.70;99.90;;;;;;5050177;28;20832;-67
2023/06/06 05:39:38;;;;;;;3.63;3.27;;;14.80;99.90;;;;;;5049580;28;21203;-67
2023/06/06 05:42:06;;;;;;;4.40;3.20;;;14.90;99.90;;;;;;5049805;28;21169;-67
2023/06/06 05:44:32;;;;;;;4.60;3.23;;;15.00;99.90;;;;;;5050287;28;20459;-68
2023/06/06 05:46:59;;;;;;;3.43;3.07;;;15.00;99.90;;;;;;5049714;28;20474;-67
2023/06/06 05:49:26;;;;;;;3.60;2.80;;;15.10;99.90;;;;;;5049885;28;20460;-68
2023/06/06 05:51:53;;;;;;;3.20;2.90;;;15.20;99.90;;;;;;5049422;28;20485;-67
2023/06/06 05:54:20;;;;;;;3.97;3.30;;;15.30;99.90;;;;;;5050060;28;20972;-68
2023/06/06 05:56:48;;;;;;;2.93;2.63;;;15.30;99.90;;;;;;5049817;28;20470;-67
2023/06/06 05:59:15;;;;;;;3.57;3.20;;;15.40;99.90;;;;;;5049760;28;20503;-68
2023/06/06 06:01:43;;;;;;;3.00;2.50;;;15.50;99.90;;;;;;5048721;28;20466;-68
2023/06/06 06:04:10;;;;;;;4.33;3.30;;;15.60;99.90;;;;;;5049770;28;20974;-68
2023/06/06 06:06:38;;;;;;;3.30;2.80;;;15.70;99.90;;;;;;5041980;28;20468;-68
2023/06/06 06:09:05;;;;;;;2.77;2.50;;;15.80;99.90;;;;;;5030009;28;20519;-68
2023/06/06 06:11:32;;;;;;;3.70;2.70;;;15.80;99.90;;;;;;5029784;28;20464;-68
2023/06/06 06:14:00;;;;;;;4.73;2.83;;;15.90;99.90;;;;;;5030084;28;23920;-68
2023/06/06 06:16:27;;;;;;;5.83;3.20;;;15.90;99.90;;;;;;5030170;28;20472;-68
2023/06/06 06:18:54;;;;;;;2.90;2.50;;;15.90;99.90;;;;;;5029373;28;20491;-68
2023/06/06 06:21:21;;;;;;;3.50;3.07;;;16.00;99.90;;;;;;5029855;28;20478;-67
2023/06/06 06:23:49;;;;;;;2.83;2.50;;;16.00;99.90;;;;;;5030961;28;20467;-67
2023/06/06 06:26:16;;;;;;;3.50;3.20;;;16.10;99.90;;;;;;5045029;28;20461;-67
2023/06/06 06:28:43;;;;;;;3.50;2.93;;;16.20;99.90;;;;;;5046704;28;20479;-68
2023/06/06 06:31:11;;;;;;;3.10;2.80;;;16.20;99.90;;;;;;5049263;28;20467;-68
2023/06/06 06:33:38;;;;;;;2.80;2.47;;;16.30;99.90;;;;;;5049519;28;20461;-68
2023/06/06 06:36:05;;;;;;;3.33;2.90;;;16.30;99.90;;;;;;5021507;28;20491;-68
2023/06/06 06:38:32;;;;;;;3.70;2.97;;;16.30;99.90;;;;;;5029549;28;20488;-68
2023/06/06 06:40:59;;;;;;;4.97;3.33;;;16.50;99.90;;;;;;5028275;28;20468;-66
2023/06/06 06:43:26;;;;;;;4.20;3.00;;;16.60;99.90;;;;;;5031769;28;20464;-68
2023/06/06 06:45:53;;;;;;;3.27;3.00;;;16.60;99.90;;;;;;5042909;28;20836;-67
2023/06/06 06:48:21;;;;;;;4.50;2.90;;;16.70;99.90;;;;;;5053068;28;20479;-68
2023/06/06 06:50:48;;;;;;;3.53;3.23;;;16.70;99.90;;;;;;5044412;28;20463;-67
2023/06/06 06:53:16;;;;;;;2.90;2.43;;;16.70;99.90;;;;;;5030666;28;20475;-68
2023/06/06 06:55:44;;;;;;;3.33;2.77;;;16.80;99.90;;;;;;5028197;28;20456;-68
2023/06/06 06:58:13;;;;;;;4.77;2.97;;;16.90;99.90;;;;;;5028836;28;21030;-67
2023/06/06 07:00:40;;;;;;;3.33;3.03;;;16.90;99.90;;;;;;5037507;28;20990;-68
2023/06/06 07:03:08;;;;;;;4.80;3.63;;;17.00;99.90;;;;;;5049445;28;21018;-67
2023/06/06 07:05:36;;;;;;;3.37;2.83;;;17.10;99.90;;;;;;5044357;28;20472;-68
2023/06/06 07:08:03;;;;;;;3.90;2.87;;;17.20;99.90;;;;;;5030109;28;20484;-67
2023/06/06 07:10:31;;;;;;;3.67;3.30;;;17.30;99.90;;;;;;5038903;28;20458;-68
2023/06/06 07:12:58;;;;;;;3.33;3.03;;;17.40;99.90;;;;;;5052779;28;20491;-67
2023/06/06 07:15:25;;;;;;;3.30;2.93;;;17.50;99.90;;;;;;5052596;28;20467;-68
2023/06/06 07:17:52;;;;;;;3.63;3.03;;;17.60;99.90;;;;;;5042683;28;20487;-68
2023/06/06 07:20:20;;;;;;;3.47;3.17;;;17.70;99.90;;;;;;5031807;28;20538;-67
2023/06/06 07:22:49;;;;;;;2.70;2.50;;;17.70;99.90;;;;;;5032967;28;20471;-67
2023/06/06 07:25:16;;;;;;;3.20;2.60;;;17.80;99.90;;;;;;5040179;28;20496;-68
2023/06/06 07:27:43;;;;;;;3.37;2.70;;;17.80;99.90;;;;;;5032128;28;20572;-67
2023/06/06 07:30:13;;;;;;;3.30;2.93;;;17.90;99.90;;;;;;5051893;28;20947;-67
2023/06/06 07:32:41;;;;;;;3.60;3.30;;;18.00;99.90;;;;;;5045074;28;20841;-67
2023/06/06 07:35:10;;;;;;;2.83;2.63;;;18.10;99.90;;;;;;5032137;28;20563;-67
2023/06/06 07:37:37;;;;;;;3.63;2.90;;;18.10;99.90;;;;;;5032264;28;20492;-68
2023/06/06 07:40:08;;;;;;;3.37;2.73;;;18.20;99.90;;;;;;5031285;28;20488;-67
2023/06/06 07:42:36;;;;;;;2.50;2.30;;;18.30;99.90;;;;;;5032011;28;20460;-67
2023/06/06 07:45:04;;;;;;;3.07;2.77;;;18.40;99.90;;;;;;5040180;28;20470;-67
2023/06/06 07:47:31;;;;;;;4.17;3.13;;;18.50;99.90;;;;;;5046730;28;20483;-67
2023/06/06 07:50:02;;;;;;;4.27;2.60;;;18.60;99.90;;;;;;5043276;28;20553;-68
2023/06/06 07:52:30;;;;;;;3.07;2.77;;;18.70;99.90;;;;;;5050976;28;20542;-67
2023/06/06 07:54:58;;;;;;;3.13;2.63;;;18.80;99.90;;;;;;5030221;28;20472;-67
2023/06/06 07:57:27;;;;;;;3.40;2.60;;;18.90;99.90;;;;;;5026338;28;20492;-68
2023/06/06 07:59:55;;;;;;;3.07;2.70;;;19.00;99.90;;;;;;5034551;28;20494;-67
2023/06/06 08:02:23;;;;;;;3.30;3.00;;;19.10;99.90;;;;;;5026926;28;20562;-67
2023/06/06 08:04:50;;;;;;;2.60;2.40;;;19.20;99.90;;;;;;5005310;28;20987;-67
2023/06/06 08:07:18;;;;;;;2.90;2.50;;;19.30;99.90;;;;;;5011150;28;20563;-67
2023/06/06 08:09:45;;;;;;;3.13;2.83;;;19.40;99.90;;;;;;5024450;28;20459;-68
2023/06/06 08:12:13;;;;;;;3.00;2.70;;;19.40;99.90;;;;;;5023056;28;20990;-68
2023/06/06 08:14:43;;;;;;;2.57;2.37;;;19.40;99.90;;;;;;5031283;28;20472;-68
2023/06/06 08:17:10;;;;;;;3.77;2.43;;;19.60;99.90;;;;;;5030667;28;20470;-68
2023/06/06 08:19:37;;;;;;;3.20;2.90;;;19.70;99.90;;;;;;5028561;28;20484;-68
2023/06/06 08:22:06;;;;;;;3.77;3.20;;;19.90;99.90;;;;;;5030088;28;20869;-68
2023/06/06 08:24:33;;;;;;;3.03;2.50;;;20.00;99.90;;;;;;5031297;28;20501;-68
2023/06/06 08:27:00;;;;;;;2.90;2.70;;;20.10;99.90;;;;;;5030071;28;20464;-67
2023/06/06 08:29:27;;;;;;;3.00;2.20;;;20.10;99.90;;;;;;5027204;28;20550;-67
2023/06/06 08:31:55;;;;;;;2.90;2.43;;;20.20;99.90;;;;;;5041279;28;20464;-68
2023/06/06 08:34:22;;;;;;;3.60;2.40;;;20.20;99.90;;;;;;5031237;28;20461;-68
2023/06/06 08:36:49;;;;;;;2.43;2.10;;;20.20;99.90;;;;;;5039201;28;20551;-68
2023/06/06 08:39:18;;;;;;;3.53;2.93;;;20.30;99.90;;;;;;5038325;28;20485;-68
2023/06/06 08:41:50;;;;;;;3.20;2.90;;;20.40;99.90;;;;;;5038335;28;20493;-68
2023/06/06 08:44:19;;;;;;;2.93;2.67;;;20.50;99.90;;;;;;5046741;28;20534;-68
2023/06/06 08:46:48;;;;;;;3.07;2.77;;;20.60;99.90;;;;;;5031034;28;20457;-68
2023/06/06 08:49:18;;;;;;;3.40;3.10;;;20.70;99.90;;;;;;5034386;28;20502;-68
2023/06/06 08:51:45;;;;;;;2.37;2.17;;;20.70;99.90;;;;;;5050537;28;21052;-68
2023/06/06 08:54:13;;;;;;;2.70;2.50;;;20.70;99.90;;;;;;5050073;28;20472;-68
2023/06/06 08:56:42;;;;;;;2.87;2.30;;;20.80;99.90;;;;;;5035729;28;20464;-68
2023/06/06 08:59:11;;;;;;;4.40;2.93;;;21.00;99.90;;;;;;5032464;28;20581;-68
2023/06/06 09:01:38;;;;;;;3.13;2.33;;;21.00;99.90;;;;;;5050501;28;20466;-68
2023/06/06 09:04:06;;;;;;;4.17;3.10;;;21.10;98.70;;;;;;5050194;28;20974;-68
2023/06/06 09:06:38;;;;;;;2.77;2.47;;;21.10;99.50;;;;;;5043708;28;20852;-68
2023/06/06 09:09:07;;;;;;;3.27;2.97;;;21.20;98.50;;;;;;5029765;28;20605;-68
2023/06/06 09:11:34;;;;;;;3.27;2.57;;;21.30;99.90;;;;;;5044719;28;20804;-68
2023/06/06 09:14:01;;;;;;;2.60;2.40;;;21.40;99.20;;;;;;5049471;28;20486;-68
2023/06/06 09:16:28;;;;;;;3.07;2.60;;;21.50;98.80;;;;;;5050393;28;20464;-68
2023/06/06 09:18:57;;;;;;;3.40;3.03;;;21.50;98.30;;;;;;5049242;28;20507;-68
2023/06/06 09:21:28;;;;;;;2.93;2.70;;;21.60;99.40;;;;;;5036792;28;20476;-68
2023/06/06 09:23:57;;;;;;;3.30;3.00;;;21.70;99.90;;;;;;5030012;28;20462;-68
2023/06/06 09:26:25;;;;;;;4.20;3.17;;;21.80;99.60;;;;;;5030572;28;20469;-68
2023/06/06 09:28:52;;;;;;;2.50;2.30;;;21.80;98.80;;;;;;5028926;28;20489;-68
2023/06/06 09:31:25;;;;;;;3.37;3.00;;;22.00;99.80;;;;;;5033766;28;20459;-68
2023/06/06 09:33:53;;;;;;;3.53;2.80;;;22.10;99.60;;;;;;5049900;28;20469;-68
2023/06/06 09:36:22;;;;;;;3.20;2.90;;;22.20;99.90;;;;;;5049893;28;20459;-68
2023/06/06 09:38:49;;;;;;;3.53;2.93;;;22.40;99.90;;;;;;5049877;28;20480;-68
2023/06/06 09:41:18;;;;;;;3.23;2.87;;;22.60;99.60;;;;;;5049396;28;20478;-68
2023/06/06 09:43:44;;;;;;;3.07;2.73;;;22.60;98.80;;;;;;5033851;28;20584;-68
2023/06/06 09:46:16;;;;;;;4.83;2.87;;;22.60;98.90;;;;;;5029864;28;20461;-68
2023/06/06 09:48:43;;;;;;;3.63;3.33;;;22.70;98.70;;;;;;5029983;28;20487;-68
2023/06/06 09:51:11;;;;;;;3.60;2.80;;;22.70;98.80;;;;;;5028831;28;20955;-68
2023/06/06 09:53:38;;;;;;;3.60;3.10;;;22.60;98.90;;;;;;5036558;28;20515;-68
2023/06/06 09:56:06;;;;;;;3.13;2.83;;;22.70;97.90;;;;;;5039167;28;20461;-68
2023/06/06 09:58:36;;;;;;;3.20;2.80;;;22.80;97.10;;;;;;5029644;28;20490;-68
2023/06/06 10:01:03;;;;;;;3.00;2.70;;;22.70;96.10;;;;;;5037150;28;20488;-68
2023/06/06 10:03:32;;;;;;;3.70;3.40;;;22.70;98.20;;;;;;5029896;28;20456;-68
2023/06/06 10:05:59;;;;;;;3.07;2.77;;;22.90;99.30;;;;;;5029277;28;20541;-68
2023/06/06 10:08:27;;;;;;;3.57;3.07;;;23.10;99.10;;;;;;5029594;28;20480;-68
2023/06/06 10:10:55;;;;;;;3.80;2.80;;;23.30;99.60;;;;;;5029108;28;20467;-68
2023/06/06 10:13:24;;;;;;;3.23;2.97;;;23.50;98.90;;;;;;5041904;28;20457;-68
2023/06/06 10:15:53;;;;;;;3.27;2.97;;;23.60;97.10;;;;;;5049526;28;20460;-68
2023/06/06 10:18:21;;;;;;;3.03;2.67;;;23.70;97.80;;;;;;5028538;28;20951;-68
2023/06/06 10:20:48;;;;;;;3.23;2.93;;;23.70;95.90;;;;;;5044825;28;20486;-68
2023/06/06 10:23:15;;;;;;;3.40;3.10;;;23.80;97.80;;;;;;5033991;28;20462;-67
2023/06/06 10:25:42;;;;;;;3.67;3.23;;;23.90;97.90;;;;;;5049488;28;20463;-68
2023/06/06 10:28:15;;;;;;;2.80;2.57;;;23.90;97.90;;;;;;5031882;28;20543;-68
2023/06/06 10:30:55;;;;;;;3.43;3.13;;;24.00;98.50;;;;;;5040433;28;20465;-68
2023/06/06 10:33:32;;;;;;;2.97;2.77;;;24.00;97.00;;;;;;5038180;28;20459;-68
2023/06/06 10:36:01;;;;;;;3.80;2.93;;;24.10;97.20;;;;;;5040414;28;20491;-68
2023/06/06 10:38:28;;;;;;;3.40;3.10;;;24.20;96.20;;;;;;5033223;28;20484;-68
2023/06/06 10:40:56;;;;;;;3.50;3.10;;;24.20;95.80;;;;;;5031760;28;20477;-68
2023/06/06 10:43:52;;;;;;;2.77;2.57;;;24.30;95.30;;;;;;5041319;28;20496;-68
2023/06/06 10:46:20;;;;;;;3.07;2.77;;;24.40;96.90;;;;;;5049554;28;20803;-68
2023/06/06 10:48:55;;;;;;;3.20;2.77;;;24.50;95.00;;;;;;5033283;28;20481;-68
2023/06/06 10:51:34;;;;;;;2.57;2.33;;;24.70;95.10;;;;;;5037005;28;20455;-68
2023/06/06 10:54:17;;;;;;;3.13;2.73;;;24.80;95.50;;;;;;5035962;28;20552;-68
2023/06/06 10:56:45;;;;;;;3.33;2.90;;;24.70;94.10;;;;;;5033543;28;20456;-68
2023/06/06 10:59:14;;;;;;;3.27;2.90;;;24.70;95.40;;;;;;5042973;28;20514;-68
2023/06/06 11:01:44;;;;;;;3.83;2.90;;;24.60;95.50;;;;;;5046539;28;20539;-68
2023/06/06 11:04:21;;;;;;;3.20;2.90;;;24.60;95.40;;;;;;5043142;28;20462;-68
2023/06/06 11:06:49;;;;;;;3.53;3.20;;;24.80;95.90;;;;;;5046136;28;20874;-68
2023/06/06 11:09:22;;;;;;;3.40;2.77;;;25.00;97.20;;;;;;5049224;28;20496;-68
2023/06/06 11:11:49;;;;;;;4.30;2.97;;;25.10;94.70;;;;;;5032253;28;20453;-68
2023/06/06 11:14:21;;;;;;;2.67;2.47;;;25.20;95.20;;;;;;5035891;28;20471;-68
2023/06/06 11:17:02;;;;;;;4.43;3.00;;;25.20;95.20;;;;;;5052851;28;20553;-68
2023/06/06 11:19:38;;;;;;;3.47;3.00;;;25.40;95.10;;;;;;5044283;28;20981;-68
2023/06/06 11:22:06;;;;;;;3.07;2.43;;;25.60;95.30;;;;;;5044056;28;20485;-67
2023/06/06 11:24:35;;;;;;;3.40;3.00;;;25.70;94.70;;;;;;5044480;28;20458;-68
2023/06/06 11:27:03;;;;;;;6.93;3.20;;;25.70;92.90;;;;;;5043852;28;20813;-68
2023/06/06 11:29:31;;;;;;;3.33;2.60;;;25.70;94.40;;;;;;5039217;28;20488;-68
2023/06/06 11:31:59;;;;;;;3.47;3.17;;;25.80;95.20;;;;;;5049121;28;20995;-67
2023/06/06 11:34:27;;;;;;;2.83;2.63;;;25.90;93.70;;;;;;5044664;28;20483;-68
2023/06/06 11:36:54;;;;;;;5.60;3.60;;;25.90;94.20;;;;;;5043899;28;20474;-68
2023/06/06 11:39:21;;;;;;;4.20;3.07;;;26.10;95.10;;;;;;5048957;28;20563;-68
2023/06/06 11:41:50;;;;;;;3.83;3.00;;;26.30;94.00;;;;;;5040645;28;21030;-68
2023/06/06 11:44:17;;;;;;;3.10;2.80;;;26.40;93.90;;;;;;5043166;28;20947;-68
2023/06/06 11:46:48;;;;;;;4.50;3.17;;;26.20;94.10;;;;;;5044450;28;20460;-68
2023/06/06 11:49:15;;;;;;;2.93;2.63;;;25.80;91.60;;;;;;5041008;28;21000;-68
2023/06/06 11:51:43;;;;;;;3.27;2.97;;;25.40;92.00;;;;;;5046548;28;20517;-68
2023/06/06 11:54:17;;;;;;;2.90;2.70;;;24.90;91.10;;;;;;5042066;28;20476;-68
2023/06/06 11:56:44;;;;;;;3.60;2.80;;;24.50;91.00;;;;;;5040669;28;20469;-68
2023/06/06 11:59:12;;;;;;;3.20;2.90;;;24.30;92.20;;;;;;5041357;28;20892;-68
2023/06/06 12:01:49;;;;;;;3.17;2.40;;;24.20;92.00;;;;;;5043517;28;20482;-68
2023/06/06 12:04:16;;;;;;;2.53;2.33;;;24.30;92.20;;;;;;5035312;28;20948;-68
2023/06/06 12:06:47;;;;;;;3.10;2.80;;;24.60;93.50;;;;;;5037970;28;20469;-68
2023/06/06 12:09:16;;;;;;;2.77;2.57;;;25.00;90.80;;;;;;5042231;28;20842;-68
2023/06/06 12:11:54;;;;;;;3.50;3.20;;;25.20;92.20;;;;;;5037425;28;20490;-68
2023/06/06 12:14:22;;;;;;;4.50;2.90;;;25.50;91.00;;;;;;5042713;28;20498;-68
2023/06/06 12:16:49;;;;;;;3.23;2.93;;;25.60;91.60;;;;;;5043673;28;20466;-68
2023/06/06 12:19:17;;;;;;;2.23;2.03;;;25.70;90.10;;;;;;5049116;28;20717;-68
2023/06/06 12:21:47;;;;;;;4.43;3.17;;;25.70;90.20;;;;;;5039805;28;20491;-68
2023/06/06 12:24:18;;;;;;;2.50;2.30;;;25.80;92.70;;;;;;5039750;28;20464;-68
2023/06/06 12:26:51;;;;;;;3.17;2.87;;;26.00;93.10;;;;;;5045629;28;20463;-68
2023/06/06 12:29:19;;;;;;;3.40;2.73;;;26.20;91.20;;;;;;5050705;28;20498;-68
2023/06/06 12:31:46;;;;;;;3.77;2.80;;;26.30;88.60;;;;;;5051211;28;20898;-68
2023/06/06 12:34:14;;;;;;;3.10;2.80;;;26.10;88.60;;;;;;5051175;28;20460;-68
2023/06/06 12:36:41;;;;;;;2.57;2.37;;;26.10;90.20;;;;;;5046066;28;20468;-68
2023/06/06 12:39:13;;;;;;;2.73;2.53;;;26.10;90.10;;;;;;5030265;28;20575;-68
2023/06/06 12:41:41;;;;;;;3.57;3.17;;;26.20;89.30;;;;;;5030123;28;20481;-68
2023/06/06 12:44:11;;;;;;;3.70;3.20;;;26.30;90.40;;;;;;5030660;28;20464;-68
2023/06/06 12:46:41;;;;;;;3.40;3.10;;;26.30;90.70;;;;;;5031358;28;20465;-68
2023/06/06 12:49:08;;;;;;;2.80;2.60;;;26.40;88.30;;;;;;5030105;28;20599;-68
2023/06/06 12:51:38;;;;;;;3.67;2.80;;;26.30;89.00;;;;;;5035331;28;20466;-68
2023/06/06 12:54:06;;;;;;;3.13;2.83;;;26.20;90.90;;;;;;5042105;28;20516;-67